This is the latest recevied weather packets stored in our database for station/object IK2YOU-3. If no packets are shown the sender has not sent any weather packets the latest 10 day(s).
| Time | Temp. | Humidity | Pressure | Rain* | Wind** | Luminosity | Snow |
|---|---|---|---|---|---|---|---|
| 1777887404 | 21.11° C | 41% | 1015.5 hPa | 0 mm | - | 320 W/m² | - |
| 1777886677 | 20.56° C | 43% | 1015.6 hPa | 0 mm | - | 277 W/m² | - |
| 1777886077 | 20.56° C | 41% | 1015.6 hPa | 0 mm | - | 349 W/m² | - |
| 1777885607 | 20° C | 42% | 1015.5 hPa | 0 mm | - | 327 W/m² | - |
| 1777884878 | 20° C | 42% | 1015.5 hPa | 0 mm | - | 263 W/m² | - |
| 1777884278 | 20° C | 43% | 1015.5 hPa | 0 mm | - | 255 W/m² | - |
| 1777883678 | 19.44° C | 44% | 1015.6 hPa | 0 mm | - | 215 W/m² | - |
| 1777883078 | 19.44° C | 45% | 1015.6 hPa | 0 mm | - | 177 W/m² | - |
| 1777882478 | 19.44° C | 44% | 1015.6 hPa | 0 mm | - | 210 W/m² | - |
| 1777881878 | 19.44° C | 45% | 1015.5 hPa | 0 mm | - | 220 W/m² | - |
| 1777881275 | 18.89° C | 46% | 1015.4 hPa | 0 mm | - | 204 W/m² | - |
| 1777880674 | 18.33° C | 45% | 1015.3 hPa | 0 mm | - | 167 W/m² | - |
| 1777880075 | 18.33° C | 46% | 1015.2 hPa | 0 mm | - | 177 W/m² | - |
| 1777879481 | 17.78° C | 47% | 1015.1 hPa | 0 mm | - | 163 W/m² | - |
| 1777878875 | 17.78° C | 48% | 1015.2 hPa | 0 mm | - | 140 W/m² | - |
| 1777878275 | 17.78° C | 48% | 1015.1 hPa | 0 mm | - | 138 W/m² | - |
| 1777877675 | 17.78° C | 51% | 1015.1 hPa | 0 mm | - | 124 W/m² | - |
| 1777877205 | 17.22° C | 51% | 1015.1 hPa | 0 mm | - | 104 W/m² | - |
| 1777876477 | 17.22° C | 52% | 1015 hPa | 0 mm | - | 108 W/m² | - |
| 1777875873 | 16.67° C | 53% | 1015.2 hPa | 0 mm | - | 90 W/m² | - |
| 1777875274 | 16.67° C | 56% | 1015 hPa | 0 mm | - | 76 W/m² | - |
| 1777874673 | 16.67° C | 57% | 1014.9 hPa | 0 mm | - | 67 W/m² | - |
| 1777874072 | 16.67° C | 56% | 1014.9 hPa | 0 mm | - | 60 W/m² | - |
| 1777873473 | 16.11° C | 63% | 1014.6 hPa | 0 mm | - | 74 W/m² | - |
| 1777873320 | 15.56° C | 58% | 1014.8 hPa | 0 mm | - | 61 W/m² | - |
* Rain latest hour (hover to see other rain measurements)
** Current wind speed in m/s (hover to see current wind gust speed)